sensor_id;sensor_type;location;lat;lon;timestamp;P1;durP1;ratioP1;P2;durP2;ratioP2
36715;SDS011;22699;51.034;3.730;2022-12-07T00:01:21;9.00;;;7.03;;
36715;SDS011;22699;51.034;3.730;2022-12-07T00:03:50;9.55;;;7.07;;
36715;SDS011;22699;51.034;3.730;2022-12-07T00:06:17;9.40;;;6.57;;
36715;SDS011;22699;51.034;3.730;2022-12-07T00:08:46;7.40;;;5.53;;
36715;SDS011;22699;51.034;3.730;2022-12-07T00:11:16;10.73;;;8.02;;
36715;SDS011;22699;51.034;3.730;2022-12-07T00:13:45;10.10;;;6.88;;
36715;SDS011;22699;51.034;3.730;2022-12-07T00:16:14;9.57;;;6.45;;
36715;SDS011;22699;51.034;3.730;2022-12-07T00:18:43;11.55;;;6.72;;
36715;SDS011;22699;51.034;3.730;2022-12-07T00:21:17;9.05;;;5.80;;
36715;SDS011;22699;51.034;3.730;2022-12-07T00:23:44;8.43;;;6.05;;
36715;SDS011;22699;51.034;3.730;2022-12-07T00:28:46;6.40;;;4.95;;
36715;SDS011;22699;51.034;3.730;2022-12-07T00:31:14;10.85;;;5.25;;
36715;SDS011;22699;51.034;3.730;2022-12-07T00:33:44;9.32;;;4.22;;
36715;SDS011;22699;51.034;3.730;2022-12-07T00:36:12;6.50;;;3.88;;
36715;SDS011;22699;51.034;3.730;2022-12-07T00:38:40;6.23;;;3.23;;
36715;SDS011;22699;51.034;3.730;2022-12-07T00:41:11;7.43;;;4.00;;
36715;SDS011;22699;51.034;3.730;2022-12-07T00:43:43;7.35;;;3.50;;
36715;SDS011;22699;51.034;3.730;2022-12-07T00:46:10;7.55;;;4.38;;
36715;SDS011;22699;51.034;3.730;2022-12-07T00:48:36;5.90;;;3.70;;
36715;SDS011;22699;51.034;3.730;2022-12-07T00:51:02;7.25;;;4.35;;
36715;SDS011;22699;51.034;3.730;2022-12-07T00:53:28;6.78;;;3.47;;
36715;SDS011;22699;51.034;3.730;2022-12-07T00:55:57;8.90;;;3.25;;
36715;SDS011;22699;51.034;3.730;2022-12-07T00:58:26;8.50;;;3.95;;
36715;SDS011;22699;51.034;3.730;2022-12-07T01:00:52;7.07;;;3.85;;
36715;SDS011;22699;51.034;3.730;2022-12-07T01:05:51;8.05;;;3.75;;
36715;SDS011;22699;51.034;3.730;2022-12-07T01:10:46;6.25;;;3.42;;
36715;SDS011;22699;51.034;3.730;2022-12-07T01:13:12;5.43;;;3.50;;
36715;SDS011;22699;51.034;3.730;2022-12-07T01:18:10;5.60;;;3.55;;
36715;SDS011;22699;51.034;3.730;2022-12-07T01:20:36;4.72;;;3.80;;
36715;SDS011;22699;51.034;3.730;2022-12-07T01:23:02;6.80;;;3.90;;
36715;SDS011;22699;51.034;3.730;2022-12-07T01:25:29;7.65;;;4.10;;
36715;SDS011;22699;51.034;3.730;2022-12-07T01:28:00;6.82;;;4.13;;
36715;SDS011;22699;51.034;3.730;2022-12-07T01:30:27;7.60;;;4.90;;
36715;SDS011;22699;51.034;3.730;2022-12-07T01:32:54;5.60;;;4.28;;
36715;SDS011;22699;51.034;3.730;2022-12-07T01:35:20;8.52;;;4.60;;
36715;SDS011;22699;51.034;3.730;2022-12-07T01:37:45;5.78;;;4.30;;
36715;SDS011;22699;51.034;3.730;2022-12-07T01:40:11;8.35;;;4.22;;
36715;SDS011;22699;51.034;3.730;2022-12-07T01:42:37;8.02;;;4.68;;
36715;SDS011;22699;51.034;3.730;2022-12-07T01:48:04;8.27;;;5.30;;
36715;SDS011;22699;51.034;3.730;2022-12-07T01:50:32;11.27;;;5.70;;
36715;SDS011;22699;51.034;3.730;2022-12-07T01:52:59;8.52;;;6.00;;
36715;SDS011;22699;51.034;3.730;2022-12-07T01:55:29;8.48;;;5.60;;
36715;SDS011;22699;51.034;3.730;2022-12-07T01:57:55;8.32;;;6.00;;
36715;SDS011;22699;51.034;3.730;2022-12-07T02:00:21;10.27;;;5.90;;
36715;SDS011;22699;51.034;3.730;2022-12-07T02:05:16;7.22;;;5.90;;
36715;SDS011;22699;51.034;3.730;2022-12-07T02:07:42;10.23;;;7.15;;
36715;SDS011;22699;51.034;3.730;2022-12-07T02:10:27;10.45;;;6.20;;
36715;SDS011;22699;51.034;3.730;2022-12-07T02:13:00;7.18;;;5.47;;
36715;SDS011;22699;51.034;3.730;2022-12-07T02:30:17;10.98;;;6.35;;
36715;SDS011;22699;51.034;3.730;2022-12-07T02:32:23;17.27;;;7.45;;
36715;SDS011;22699;51.034;3.730;2022-12-07T02:35:04;9.82;;;6.18;;
36715;SDS011;22699;51.034;3.730;2022-12-07T02:40:43;7.88;;;6.32;;
36715;SDS011;22699;51.034;3.730;2022-12-07T02:43:29;9.57;;;6.95;;
36715;SDS011;22699;51.034;3.730;2022-12-07T02:46:13;13.70;;;8.00;;
36715;SDS011;22699;51.034;3.730;2022-12-07T02:48:46;12.15;;;7.78;;
36715;SDS011;22699;51.034;3.730;2022-12-07T02:51:17;11.82;;;7.22;;
36715;SDS011;22699;51.034;3.730;2022-12-07T02:53:44;12.80;;;7.70;;
36715;SDS011;22699;51.034;3.730;2022-12-07T02:59:06;13.75;;;6.60;;
36715;SDS011;22699;51.034;3.730;2022-12-07T03:07:39;9.85;;;7.25;;
36715;SDS011;22699;51.034;3.730;2022-12-07T03:12:45;10.35;;;6.43;;
36715;SDS011;22699;51.034;3.730;2022-12-07T03:15:33;10.65;;;6.05;;
36715;SDS011;22699;51.034;3.730;2022-12-07T03:18:10;14.32;;;7.57;;
36715;SDS011;22699;51.034;3.730;2022-12-07T03:20:39;9.73;;;6.18;;
36715;SDS011;22699;51.034;3.730;2022-12-07T03:23:07;12.13;;;6.18;;
36715;SDS011;22699;51.034;3.730;2022-12-07T03:25:39;9.73;;;5.53;;
36715;SDS011;22699;51.034;3.730;2022-12-07T03:28:09;7.40;;;5.53;;
36715;SDS011;22699;51.034;3.730;2022-12-07T03:33:36;7.30;;;4.68;;
36715;SDS011;22699;51.034;3.730;2022-12-07T03:39:19;8.68;;;4.53;;
36715;SDS011;22699;51.034;3.730;2022-12-07T03:41:46;10.07;;;4.57;;
36715;SDS011;22699;51.034;3.730;2022-12-07T03:44:13;9.60;;;5.07;;
36715;SDS011;22699;51.034;3.730;2022-12-07T03:49:22;13.68;;;5.75;;
36715;SDS011;22699;51.034;3.730;2022-12-07T03:52:03;9.55;;;4.43;;
36715;SDS011;22699;51.034;3.730;2022-12-07T03:57:44;10.02;;;4.60;;
36715;SDS011;22699;51.034;3.730;2022-12-07T04:00:13;10.23;;;4.35;;
36715;SDS011;22699;51.034;3.730;2022-12-07T04:02:41;7.57;;;4.18;;
36715;SDS011;22699;51.034;3.730;2022-12-07T04:05:07;10.23;;;5.20;;
36715;SDS011;22699;51.034;3.730;2022-12-07T04:07:35;8.43;;;4.85;;
36715;SDS011;22699;51.034;3.730;2022-12-07T04:10:01;10.60;;;4.72;;
36715;SDS011;22699;51.034;3.730;2022-12-07T04:12:28;8.07;;;4.63;;
36715;SDS011;22699;51.034;3.730;2022-12-07T04:14:54;9.30;;;4.30;;
36715;SDS011;22699;51.034;3.730;2022-12-07T04:17:21;8.43;;;4.47;;
36715;SDS011;22699;51.034;3.730;2022-12-07T04:19:47;8.07;;;4.20;;
36715;SDS011;22699;51.034;3.730;2022-12-07T04:22:13;10.85;;;4.72;;
36715;SDS011;22699;51.034;3.730;2022-12-07T04:24:39;8.55;;;4.32;;
36715;SDS011;22699;51.034;3.730;2022-12-07T04:27:06;11.48;;;4.70;;
36715;SDS011;22699;51.034;3.730;2022-12-07T04:29:33;7.95;;;4.20;;
36715;SDS011;22699;51.034;3.730;2022-12-07T04:31:59;11.55;;;4.25;;
36715;SDS011;22699;51.034;3.730;2022-12-07T04:34:24;10.60;;;4.25;;
36715;SDS011;22699;51.034;3.730;2022-12-07T04:39:23;6.13;;;3.40;;
36715;SDS011;22699;51.034;3.730;2022-12-07T04:41:50;9.10;;;3.50;;
36715;SDS011;22699;51.034;3.730;2022-12-07T04:44:16;7.47;;;3.92;;
36715;SDS011;22699;51.034;3.730;2022-12-07T04:46:44;8.48;;;3.47;;
36715;SDS011;22699;51.034;3.730;2022-12-07T04:49:10;7.85;;;3.90;;
36715;SDS011;22699;51.034;3.730;2022-12-07T04:51:37;7.50;;;3.47;;
36715;SDS011;22699;51.034;3.730;2022-12-07T04:54:03;6.25;;;3.67;;
36715;SDS011;22699;51.034;3.730;2022-12-07T04:56:29;10.73;;;3.13;;
36715;SDS011;22699;51.034;3.730;2022-12-07T04:58:57;10.38;;;3.35;;
36715;SDS011;22699;51.034;3.730;2022-12-07T05:01:23;7.35;;;3.65;;
36715;SDS011;22699;51.034;3.730;2022-12-07T05:03:49;7.75;;;3.22;;
36715;SDS011;22699;51.034;3.730;2022-12-07T05:06:15;9.02;;;3.10;;
36715;SDS011;22699;51.034;3.730;2022-12-07T05:08:42;8.90;;;3.08;;
36715;SDS011;22699;51.034;3.730;2022-12-07T05:11:09;8.07;;;3.25;;
36715;SDS011;22699;51.034;3.730;2022-12-07T05:14:01;10.85;;;3.22;;
36715;SDS011;22699;51.034;3.730;2022-12-07T05:16:28;7.18;;;2.83;;
36715;SDS011;22699;51.034;3.730;2022-12-07T05:18:54;5.85;;;3.17;;
36715;SDS011;22699;51.034;3.730;2022-12-07T05:21:20;11.35;;;3.60;;
36715;SDS011;22699;51.034;3.730;2022-12-07T05:23:47;7.20;;;3.33;;
36715;SDS011;22699;51.034;3.730;2022-12-07T05:26:13;7.13;;;3.88;;
36715;SDS011;22699;51.034;3.730;2022-12-07T05:28:39;8.65;;;3.60;;
36715;SDS011;22699;51.034;3.730;2022-12-07T05:31:04;7.80;;;3.13;;
36715;SDS011;22699;51.034;3.730;2022-12-07T05:33:30;10.15;;;3.42;;
36715;SDS011;22699;51.034;3.730;2022-12-07T05:35:57;9.95;;;3.67;;
36715;SDS011;22699;51.034;3.730;2022-12-07T05:38:25;6.00;;;3.17;;
36715;SDS011;22699;51.034;3.730;2022-12-07T05:40:53;8.70;;;3.10;;
36715;SDS011;22699;51.034;3.730;2022-12-07T05:43:19;6.57;;;2.95;;
36715;SDS011;22699;51.034;3.730;2022-12-07T05:45:48;5.68;;;2.95;;
36715;SDS011;22699;51.034;3.730;2022-12-07T05:48:16;5.97;;;3.03;;
36715;SDS011;22699;51.034;3.730;2022-12-07T05:50:42;7.80;;;3.08;;
36715;SDS011;22699;51.034;3.730;2022-12-07T05:53:09;10.73;;;3.28;;
36715;SDS011;22699;51.034;3.730;2022-12-07T05:55:35;5.20;;;2.95;;
36715;SDS011;22699;51.034;3.730;2022-12-07T05:58:01;7.38;;;4.13;;
36715;SDS011;22699;51.034;3.730;2022-12-07T06:00:48;5.45;;;3.03;;
36715;SDS011;22699;51.034;3.730;2022-12-07T06:03:13;8.40;;;3.97;;
36715;SDS011;22699;51.034;3.730;2022-12-07T06:05:40;12.50;;;3.67;;
36715;SDS011;22699;51.034;3.730;2022-12-07T06:08:12;11.43;;;3.85;;
36715;SDS011;22699;51.034;3.730;2022-12-07T06:10:39;5.20;;;2.90;;
36715;SDS011;22699;51.034;3.730;2022-12-07T06:13:06;8.63;;;4.05;;
36715;SDS011;22699;51.034;3.730;2022-12-07T06:15:35;10.25;;;4.43;;
36715;SDS011;22699;51.034;3.730;2022-12-07T06:18:01;8.20;;;4.07;;
36715;SDS011;22699;51.034;3.730;2022-12-07T06:20:28;12.63;;;3.55;;
36715;SDS011;22699;51.034;3.730;2022-12-07T06:22:56;10.82;;;4.22;;
36715;SDS011;22699;51.034;3.730;2022-12-07T06:25:22;7.57;;;4.28;;
36715;SDS011;22699;51.034;3.730;2022-12-07T06:27:48;8.93;;;4.13;;
36715;SDS011;22699;51.034;3.730;2022-12-07T06:30:13;12.93;;;4.47;;
36715;SDS011;22699;51.034;3.730;2022-12-07T06:32:39;6.97;;;3.60;;
36715;SDS011;22699;51.034;3.730;2022-12-07T06:35:05;10.57;;;3.75;;
36715;SDS011;22699;51.034;3.730;2022-12-07T06:37:30;8.82;;;4.47;;
36715;SDS011;22699;51.034;3.730;2022-12-07T06:39:57;7.38;;;3.80;;
36715;SDS011;22699;51.034;3.730;2022-12-07T06:42:24;12.48;;;4.10;;
36715;SDS011;22699;51.034;3.730;2022-12-07T06:44:50;9.27;;;4.72;;
36715;SDS011;22699;51.034;3.730;2022-12-07T06:47:16;10.15;;;4.75;;
36715;SDS011;22699;51.034;3.730;2022-12-07T06:49:41;11.65;;;5.30;;
36715;SDS011;22699;51.034;3.730;2022-12-07T06:52:07;9.73;;;5.43;;
36715;SDS011;22699;51.034;3.730;2022-12-07T06:54:34;11.80;;;4.85;;
36715;SDS011;22699;51.034;3.730;2022-12-07T06:59:29;8.10;;;3.83;;
36715;SDS011;22699;51.034;3.730;2022-12-07T07:01:55;9.02;;;4.43;;
36715;SDS011;22699;51.034;3.730;2022-12-07T07:04:21;10.65;;;4.43;;
36715;SDS011;22699;51.034;3.730;2022-12-07T07:06:49;10.73;;;4.80;;
36715;SDS011;22699;51.034;3.730;2022-12-07T07:09:17;9.68;;;4.13;;
36715;SDS011;22699;51.034;3.730;2022-12-07T07:11:55;8.53;;;4.23;;
36715;SDS011;22699;51.034;3.730;2022-12-07T07:14:20;9.23;;;4.65;;
36715;SDS011;22699;51.034;3.730;2022-12-07T07:16:46;11.98;;;6.35;;
36715;SDS011;22699;51.034;3.730;2022-12-07T07:19:12;7.97;;;4.20;;
36715;SDS011;22699;51.034;3.730;2022-12-07T07:21:38;11.02;;;4.07;;
36715;SDS011;22699;51.034;3.730;2022-12-07T07:24:04;6.70;;;5.13;;
36715;SDS011;22699;51.034;3.730;2022-12-07T07:26:30;9.77;;;4.70;;
36715;SDS011;22699;51.034;3.730;2022-12-07T07:28:57;9.80;;;4.60;;
36715;SDS011;22699;51.034;3.730;2022-12-07T07:31:28;9.75;;;5.20;;
36715;SDS011;22699;51.034;3.730;2022-12-07T07:34:01;8.43;;;4.90;;
36715;SDS011;22699;51.034;3.730;2022-12-07T07:36:31;10.88;;;5.25;;
36715;SDS011;22699;51.034;3.730;2022-12-07T07:39:16;7.70;;;3.92;;
36715;SDS011;22699;51.034;3.730;2022-12-07T07:41:42;9.63;;;4.25;;
36715;SDS011;22699;51.034;3.730;2022-12-07T07:44:09;7.68;;;3.65;;
36715;SDS011;22699;51.034;3.730;2022-12-07T07:46:36;9.00;;;4.03;;
36715;SDS011;22699;51.034;3.730;2022-12-07T07:49:02;6.30;;;3.70;;
36715;SDS011;22699;51.034;3.730;2022-12-07T07:53:57;6.28;;;4.10;;
36715;SDS011;22699;51.034;3.730;2022-12-07T07:56:24;9.57;;;3.83;;
36715;SDS011;22699;51.034;3.730;2022-12-07T07:58:53;10.02;;;3.55;;
36715;SDS011;22699;51.034;3.730;2022-12-07T08:01:20;13.05;;;6.55;;
36715;SDS011;22699;51.034;3.730;2022-12-07T08:03:46;10.07;;;4.40;;
36715;SDS011;22699;51.034;3.730;2022-12-07T08:06:13;18.05;;;4.80;;
36715;SDS011;22699;51.034;3.730;2022-12-07T08:08:39;11.15;;;5.07;;
36715;SDS011;22699;51.034;3.730;2022-12-07T08:11:07;18.50;;;4.55;;
36715;SDS011;22699;51.034;3.730;2022-12-07T08:13:35;9.18;;;4.70;;
36715;SDS011;22699;51.034;3.730;2022-12-07T08:16:07;10.57;;;5.22;;
36715;SDS011;22699;51.034;3.730;2022-12-07T08:18:38;13.65;;;4.65;;
36715;SDS011;22699;51.034;3.730;2022-12-07T08:21:06;13.60;;;4.45;;
36715;SDS011;22699;51.034;3.730;2022-12-07T08:23:32;9.43;;;4.40;;
36715;SDS011;22699;51.034;3.730;2022-12-07T08:26:03;11.25;;;4.78;;
36715;SDS011;22699;51.034;3.730;2022-12-07T08:28:38;16.65;;;5.18;;
36715;SDS011;22699;51.034;3.730;2022-12-07T08:31:16;11.70;;;5.75;;
36715;SDS011;22699;51.034;3.730;2022-12-07T08:33:45;8.32;;;4.60;;
36715;SDS011;22699;51.034;3.730;2022-12-07T08:36:12;8.68;;;4.95;;
36715;SDS011;22699;51.034;3.730;2022-12-07T08:38:38;9.48;;;3.67;;
36715;SDS011;22699;51.034;3.730;2022-12-07T08:41:05;12.20;;;4.50;;
36715;SDS011;22699;51.034;3.730;2022-12-07T08:43:32;11.23;;;3.85;;
36715;SDS011;22699;51.034;3.730;2022-12-07T08:46:13;12.68;;;3.65;;
36715;SDS011;22699;51.034;3.730;2022-12-07T08:48:52;10.18;;;3.92;;
36715;SDS011;22699;51.034;3.730;2022-12-07T08:51:23;7.22;;;3.00;;
36715;SDS011;22699;51.034;3.730;2022-12-07T08:53:49;8.55;;;3.30;;
36715;SDS011;22699;51.034;3.730;2022-12-07T08:56:18;11.63;;;4.20;;
36715;SDS011;22699;51.034;3.730;2022-12-07T08:58:45;9.10;;;3.45;;
36715;SDS011;22699;51.034;3.730;2022-12-07T09:01:11;8.77;;;4.32;;
36715;SDS011;22699;51.034;3.730;2022-12-07T09:03:36;9.23;;;4.00;;
36715;SDS011;22699;51.034;3.730;2022-12-07T09:06:03;8.75;;;3.40;;
36715;SDS011;22699;51.034;3.730;2022-12-07T09:08:30;9.50;;;3.45;;
36715;SDS011;22699;51.034;3.730;2022-12-07T09:10:59;8.38;;;2.75;;
36715;SDS011;22699;51.034;3.730;2022-12-07T09:13:25;9.75;;;3.00;;
36715;SDS011;22699;51.034;3.730;2022-12-07T09:15:51;6.30;;;2.33;;
36715;SDS011;22699;51.034;3.730;2022-12-07T09:18:18;7.22;;;2.72;;
36715;SDS011;22699;51.034;3.730;2022-12-07T09:20:45;6.93;;;3.13;;
36715;SDS011;22699;51.034;3.730;2022-12-07T09:23:11;8.13;;;3.25;;
36715;SDS011;22699;51.034;3.730;2022-12-07T09:25:39;5.57;;;2.30;;
36715;SDS011;22699;51.034;3.730;2022-12-07T09:28:06;7.40;;;3.17;;
36715;SDS011;22699;51.034;3.730;2022-12-07T09:30:31;8.00;;;3.92;;
36715;SDS011;22699;51.034;3.730;2022-12-07T09:32:57;12.20;;;3.92;;
36715;SDS011;22699;51.034;3.730;2022-12-07T09:35:23;7.95;;;3.33;;
36715;SDS011;22699;51.034;3.730;2022-12-07T09:37:49;13.60;;;2.80;;
36715;SDS011;22699;51.034;3.730;2022-12-07T09:40:21;6.38;;;2.85;;
36715;SDS011;22699;51.034;3.730;2022-12-07T09:42:51;5.18;;;2.25;;
36715;SDS011;22699;51.034;3.730;2022-12-07T09:45:26;8.75;;;2.28;;
36715;SDS011;22699;51.034;3.730;2022-12-07T09:48:04;11.65;;;2.35;;
36715;SDS011;22699;51.034;3.730;2022-12-07T09:50:39;6.90;;;2.38;;
36715;SDS011;22699;51.034;3.730;2022-12-07T09:53:15;6.60;;;2.50;;
36715;SDS011;22699;51.034;3.730;2022-12-07T09:55:56;9.63;;;2.58;;
36715;SDS011;22699;51.034;3.730;2022-12-07T09:58:24;4.72;;;1.95;;
36715;SDS011;22699;51.034;3.730;2022-12-07T10:01:39;8.23;;;2.90;;
36715;SDS011;22699;51.034;3.730;2022-12-07T10:03:58;9.07;;;2.30;;
36715;SDS011;22699;51.034;3.730;2022-12-07T10:06:36;13.98;;;2.80;;
36715;SDS011;22699;51.034;3.730;2022-12-07T10:09:08;5.13;;;2.60;;
36715;SDS011;22699;51.034;3.730;2022-12-07T10:15:01;8.02;;;3.13;;
36715;SDS011;22699;51.034;3.730;2022-12-07T10:17:40;11.85;;;3.80;;
36715;SDS011;22699;51.034;3.730;2022-12-07T10:22:58;9.93;;;3.00;;
36715;SDS011;22699;51.034;3.730;2022-12-07T10:25:27;7.32;;;4.22;;
36715;SDS011;22699;51.034;3.730;2022-12-07T10:30:52;8.85;;;2.58;;
36715;SDS011;22699;51.034;3.730;2022-12-07T10:33:31;7.72;;;2.95;;
36715;SDS011;22699;51.034;3.730;2022-12-07T10:36:00;12.88;;;3.22;;
36715;SDS011;22699;51.034;3.730;2022-12-07T10:38:44;12.45;;;6.30;;
36715;SDS011;22699;51.034;3.730;2022-12-07T10:41:16;21.40;;;8.13;;
36715;SDS011;22699;51.034;3.730;2022-12-07T10:43:50;9.18;;;3.55;;
36715;SDS011;22699;51.034;3.730;2022-12-07T10:49:14;11.02;;;3.25;;
36715;SDS011;22699;51.034;3.730;2022-12-07T10:51:55;6.90;;;2.67;;
36715;SDS011;22699;51.034;3.730;2022-12-07T10:54:43;6.85;;;2.25;;
36715;SDS011;22699;51.034;3.730;2022-12-07T10:59:53;8.55;;;3.65;;
36715;SDS011;22699;51.034;3.730;2022-12-07T11:05:16;8.38;;;3.70;;
36715;SDS011;22699;51.034;3.730;2022-12-07T11:10:43;9.05;;;2.83;;
36715;SDS011;22699;51.034;3.730;2022-12-07T11:18:32;8.07;;;2.35;;
36715;SDS011;22699;51.034;3.730;2022-12-07T11:21:17;7.43;;;3.05;;
36715;SDS011;22699;51.034;3.730;2022-12-07T11:34:59;5.27;;;2.47;;
36715;SDS011;22699;51.034;3.730;2022-12-07T11:37:49;7.95;;;2.85;;
36715;SDS011;22699;51.034;3.730;2022-12-07T11:40:22;5.75;;;2.75;;
36715;SDS011;22699;51.034;3.730;2022-12-07T11:43:21;7.22;;;2.42;;
36715;SDS011;22699;51.034;3.730;2022-12-07T11:46:02;5.82;;;3.40;;
36715;SDS011;22699;51.034;3.730;2022-12-07T11:48:38;5.47;;;2.42;;
36715;SDS011;22699;51.034;3.730;2022-12-07T11:51:07;8.02;;;2.58;;
36715;SDS011;22699;51.034;3.730;2022-12-07T11:53:44;7.85;;;2.45;;
36715;SDS011;22699;51.034;3.730;2022-12-07T11:56:25;4.70;;;1.83;;
36715;SDS011;22699;51.034;3.730;2022-12-07T12:02:11;8.25;;;2.30;;
36715;SDS011;22699;51.034;3.730;2022-12-07T12:05:40;3.13;;;1.88;;
36715;SDS011;22699;51.034;3.730;2022-12-07T12:07:40;19.65;;;10.38;;
36715;SDS011;22699;51.034;3.730;2022-12-07T12:10:21;14.93;;;6.53;;
36715;SDS011;22699;51.034;3.730;2022-12-07T12:16:03;7.15;;;2.70;;
36715;SDS011;22699;51.034;3.730;2022-12-07T12:21:29;7.10;;;2.20;;
36715;SDS011;22699;51.034;3.730;2022-12-07T12:26:29;5.47;;;1.85;;
36715;SDS011;22699;51.034;3.730;2022-12-07T12:28:58;2.93;;;1.40;;
36715;SDS011;22699;51.034;3.730;2022-12-07T12:33:56;10.20;;;2.03;;
36715;SDS011;22699;51.034;3.730;2022-12-07T12:39:19;10.70;;;2.33;;
36715;SDS011;22699;51.034;3.730;2022-12-07T12:59:31;7.22;;;2.63;;
36715;SDS011;22699;51.034;3.730;2022-12-07T13:04:38;10.98;;;3.25;;
36715;SDS011;22699;51.034;3.730;2022-12-07T13:10:28;8.00;;;2.70;;
36715;SDS011;22699;51.034;3.730;2022-12-07T13:15:41;6.32;;;1.80;;
36715;SDS011;22699;51.034;3.730;2022-12-07T13:18:22;5.03;;;1.70;;
36715;SDS011;22699;51.034;3.730;2022-12-07T13:34:01;5.82;;;1.83;;
36715;SDS011;22699;51.034;3.730;2022-12-07T13:36:37;9.70;;;2.20;;
36715;SDS011;22699;51.034;3.730;2022-12-07T13:39:11;6.35;;;2.60;;
36715;SDS011;22699;51.034;3.730;2022-12-07T13:41:44;4.90;;;2.05;;
36715;SDS011;22699;51.034;3.730;2022-12-07T13:44:16;6.03;;;2.28;;
36715;SDS011;22699;51.034;3.730;2022-12-07T13:49:27;6.03;;;2.05;;
36715;SDS011;22699;51.034;3.730;2022-12-07T13:51:55;9.95;;;2.50;;
36715;SDS011;22699;51.034;3.730;2022-12-07T13:54:48;7.45;;;2.70;;
36715;SDS011;22699;51.034;3.730;2022-12-07T13:57:20;6.95;;;2.42;;
36715;SDS011;22699;51.034;3.730;2022-12-07T13:59:47;8.63;;;2.40;;
36715;SDS011;22699;51.034;3.730;2022-12-07T14:02:32;3.72;;;2.00;;
36715;SDS011;22699;51.034;3.730;2022-12-07T14:07:48;5.22;;;2.63;;
36715;SDS011;22699;51.034;3.730;2022-12-07T14:10:36;6.25;;;1.52;;
36715;SDS011;22699;51.034;3.730;2022-12-07T14:13:03;6.05;;;1.95;;
36715;SDS011;22699;51.034;3.730;2022-12-07T14:15:49;6.90;;;2.40;;
36715;SDS011;22699;51.034;3.730;2022-12-07T14:21:15;2.47;;;1.10;;
36715;SDS011;22699;51.034;3.730;2022-12-07T14:23:43;3.05;;;1.20;;
36715;SDS011;22699;51.034;3.730;2022-12-07T14:26:19;3.67;;;0.80;;
36715;SDS011;22699;51.034;3.730;2022-12-07T14:28:46;8.18;;;1.50;;
36715;SDS011;22699;51.034;3.730;2022-12-07T14:31:13;4.20;;;1.77;;
36715;SDS011;22699;51.034;3.730;2022-12-07T14:33:40;5.47;;;1.90;;
36715;SDS011;22699;51.034;3.730;2022-12-07T14:36:10;6.70;;;1.30;;
36715;SDS011;22699;51.034;3.730;2022-12-07T14:41:04;4.38;;;1.20;;
36715;SDS011;22699;51.034;3.730;2022-12-07T14:44:01;4.70;;;1.42;;
36715;SDS011;22699;51.034;3.730;2022-12-07T14:46:33;6.28;;;1.52;;
36715;SDS011;22699;51.034;3.730;2022-12-07T14:48:58;3.40;;;1.55;;
36715;SDS011;22699;51.034;3.730;2022-12-07T14:51:24;7.10;;;1.05;;
36715;SDS011;22699;51.034;3.730;2022-12-07T14:53:50;2.25;;;1.02;;
36715;SDS011;22699;51.034;3.730;2022-12-07T14:56:17;2.60;;;1.30;;
36715;SDS011;22699;51.034;3.730;2022-12-07T14:58:43;4.35;;;1.30;;
36715;SDS011;22699;51.034;3.730;2022-12-07T15:01:08;9.70;;;1.65;;
36715;SDS011;22699;51.034;3.730;2022-12-07T15:03:34;3.78;;;1.42;;
36715;SDS011;22699;51.034;3.730;2022-12-07T15:06:03;5.22;;;2.00;;
36715;SDS011;22699;51.034;3.730;2022-12-07T15:08:29;6.25;;;1.75;;
36715;SDS011;22699;51.034;3.730;2022-12-07T15:10:55;4.95;;;1.40;;
36715;SDS011;22699;51.034;3.730;2022-12-07T15:13:21;3.97;;;1.15;;
36715;SDS011;22699;51.034;3.730;2022-12-07T15:16:07;2.60;;;0.85;;
36715;SDS011;22699;51.034;3.730;2022-12-07T15:18:36;4.68;;;1.25;;
36715;SDS011;22699;51.034;3.730;2022-12-07T15:21:02;5.00;;;1.35;;
36715;SDS011;22699;51.034;3.730;2022-12-07T15:23:27;4.78;;;1.48;;
36715;SDS011;22699;51.034;3.730;2022-12-07T15:25:54;6.00;;;1.95;;
36715;SDS011;22699;51.034;3.730;2022-12-07T15:28:22;3.90;;;1.85;;
36715;SDS011;22699;51.034;3.730;2022-12-07T15:30:50;6.65;;;1.25;;
36715;SDS011;22699;51.034;3.730;2022-12-07T15:33:16;5.20;;;1.15;;
36715;SDS011;22699;51.034;3.730;2022-12-07T15:35:43;3.30;;;1.10;;
36715;SDS011;22699;51.034;3.730;2022-12-07T15:38:09;1.83;;;1.08;;
36715;SDS011;22699;51.034;3.730;2022-12-07T15:40:35;3.15;;;1.20;;
36715;SDS011;22699;51.034;3.730;2022-12-07T15:43:01;2.30;;;1.10;;
36715;SDS011;22699;51.034;3.730;2022-12-07T15:45:28;4.70;;;1.88;;
36715;SDS011;22699;51.034;3.730;2022-12-07T15:47:55;4.82;;;1.80;;
36715;SDS011;22699;51.034;3.730;2022-12-07T15:50:21;3.65;;;1.48;;
36715;SDS011;22699;51.034;3.730;2022-12-07T15:52:47;4.57;;;1.42;;
36715;SDS011;22699;51.034;3.730;2022-12-07T15:55:13;4.38;;;1.70;;
36715;SDS011;22699;51.034;3.730;2022-12-07T15:57:39;4.50;;;1.85;;
36715;SDS011;22699;51.034;3.730;2022-12-07T16:00:06;6.43;;;2.90;;
36715;SDS011;22699;51.034;3.730;2022-12-07T16:02:36;7.63;;;2.20;;
36715;SDS011;22699;51.034;3.730;2022-12-07T16:05:01;7.05;;;2.22;;
36715;SDS011;22699;51.034;3.730;2022-12-07T16:07:28;6.75;;;2.20;;
36715;SDS011;22699;51.034;3.730;2022-12-07T16:09:54;8.73;;;2.72;;
36715;SDS011;22699;51.034;3.730;2022-12-07T16:12:20;4.97;;;2.72;;
36715;SDS011;22699;51.034;3.730;2022-12-07T16:14:45;6.05;;;2.40;;
36715;SDS011;22699;51.034;3.730;2022-12-07T16:17:11;7.47;;;2.90;;
36715;SDS011;22699;51.034;3.730;2022-12-07T16:19:37;4.75;;;2.50;;
36715;SDS011;22699;51.034;3.730;2022-12-07T16:22:03;4.65;;;2.90;;
36715;SDS011;22699;51.034;3.730;2022-12-07T16:24:30;9.95;;;3.17;;
36715;SDS011;22699;51.034;3.730;2022-12-07T16:26:57;7.20;;;3.08;;
36715;SDS011;22699;51.034;3.730;2022-12-07T16:29:23;6.93;;;3.85;;
36715;SDS011;22699;51.034;3.730;2022-12-07T16:31:50;11.60;;;4.18;;
36715;SDS011;22699;51.034;3.730;2022-12-07T16:34:16;10.27;;;3.35;;
36715;SDS011;22699;51.034;3.730;2022-12-07T16:36:42;9.60;;;3.45;;
36715;SDS011;22699;51.034;3.730;2022-12-07T16:39:08;8.70;;;3.60;;
36715;SDS011;22699;51.034;3.730;2022-12-07T16:41:34;8.93;;;4.32;;
36715;SDS011;22699;51.034;3.730;2022-12-07T16:44:02;8.38;;;3.90;;
36715;SDS011;22699;51.034;3.730;2022-12-07T16:46:32;7.95;;;4.18;;
36715;SDS011;22699;51.034;3.730;2022-12-07T16:48:58;8.40;;;4.05;;
36715;SDS011;22699;51.034;3.730;2022-12-07T16:51:25;10.18;;;4.63;;
36715;SDS011;22699;51.034;3.730;2022-12-07T16:53:51;8.65;;;4.38;;
36715;SDS011;22699;51.034;3.730;2022-12-07T16:56:19;10.57;;;4.72;;
36715;SDS011;22699;51.034;3.730;2022-12-07T16:58:45;8.10;;;5.20;;
36715;SDS011;22699;51.034;3.730;2022-12-07T17:01:15;9.93;;;4.50;;
36715;SDS011;22699;51.034;3.730;2022-12-07T17:03:45;10.00;;;4.00;;
36715;SDS011;22699;51.034;3.730;2022-12-07T17:06:17;13.45;;;4.80;;
36715;SDS011;22699;51.034;3.730;2022-12-07T17:08:50;8.63;;;4.53;;
36715;SDS011;22699;51.034;3.730;2022-12-07T17:11:21;6.38;;;4.10;;
36715;SDS011;22699;51.034;3.730;2022-12-07T17:13:49;11.82;;;5.22;;
36715;SDS011;22699;51.034;3.730;2022-12-07T17:16:33;10.77;;;6.53;;
36715;SDS011;22699;51.034;3.730;2022-12-07T17:19:00;10.43;;;5.25;;
36715;SDS011;22699;51.034;3.730;2022-12-07T17:21:33;11.13;;;4.75;;
36715;SDS011;22699;51.034;3.730;2022-12-07T17:23:59;11.25;;;5.35;;
36715;SDS011;22699;51.034;3.730;2022-12-07T17:26:26;10.35;;;5.72;;
36715;SDS011;22699;51.034;3.730;2022-12-07T17:28:53;14.85;;;6.45;;
36715;SDS011;22699;51.034;3.730;2022-12-07T17:31:20;10.23;;;5.35;;
36715;SDS011;22699;51.034;3.730;2022-12-07T17:33:47;13.35;;;5.65;;
36715;SDS011;22699;51.034;3.730;2022-12-07T17:36:14;7.55;;;5.68;;
36715;SDS011;22699;51.034;3.730;2022-12-07T17:38:44;10.68;;;5.95;;
36715;SDS011;22699;51.034;3.730;2022-12-07T17:41:11;10.23;;;6.57;;
36715;SDS011;22699;51.034;3.730;2022-12-07T17:43:38;12.45;;;6.43;;
36715;SDS011;22699;51.034;3.730;2022-12-07T17:46:07;14.63;;;6.70;;